createdAt,value
2023-10-15T00:00:09.437Z,101765.56
2023-10-15T00:02:39.815Z,101759.53
2023-10-15T00:05:10.856Z,101762.28
2023-10-15T00:07:41.358Z,101765.06
2023-10-15T00:10:16.319Z,101765.13
2023-10-15T00:12:48.432Z,101767.97
2023-10-15T00:15:20.651Z,101767.13
2023-10-15T00:17:52.367Z,101775.13
2023-10-15T00:20:24.714Z,101776.13
2023-10-15T00:22:55.795Z,101779.69
2023-10-15T00:25:29.553Z,101779.75
2023-10-15T00:27:59.963Z,101777.25
2023-10-15T00:30:34.128Z,101778.25
2023-10-15T00:33:08.652Z,101782.78
2023-10-15T00:35:39.517Z,101774.00
2023-10-15T00:38:14.030Z,101781.97
2023-10-15T00:40:47.996Z,101784.66
2023-10-15T00:43:19.593Z,101785.59
2023-10-15T00:45:50.583Z,101785.66
2023-10-15T00:48:35.621Z,101783.94
2023-10-15T00:51:10.795Z,101791.06
2023-10-15T00:53:49.505Z,101798.22
2023-10-15T00:56:24.717Z,101801.19
2023-10-15T00:59:18.026Z,101801.91
2023-10-15T01:01:56.394Z,101802.28
2023-10-15T01:04:33.329Z,101821.44
2023-10-15T01:07:14.932Z,101823.34
2023-10-15T01:09:45.681Z,101818.94
2023-10-15T01:12:26.474Z,101819.91
2023-10-15T01:14:57.036Z,101831.44
2023-10-15T01:17:28.246Z,101824.47
2023-10-15T01:19:58.839Z,101808.38
2023-10-15T01:22:33.834Z,101831.75
2023-10-15T01:25:26.760Z,101824.13
2023-10-15T01:28:01.842Z,101840.59
2023-10-15T01:30:37.435Z,101824.13
2023-10-15T01:33:12.357Z,101846.00
2023-10-15T01:35:45.827Z,101834.63
2023-10-15T01:38:21.900Z,101834.63
2023-10-15T01:40:58.209Z,101831.19
2023-10-15T01:43:29.325Z,101835.69
2023-10-15T01:46:08.417Z,101835.69
2023-10-15T01:48:41.293Z,101841.09
2023-10-15T01:51:13.449Z,101851.69
2023-10-15T01:53:46.601Z,101849.09
2023-10-15T01:56:22.422Z,101851.81
2023-10-15T01:58:53.705Z,101854.50
2023-10-15T02:01:39.103Z,101851.03
2023-10-15T02:04:11.360Z,101851.06
2023-10-15T02:06:44.702Z,101854.66
2023-10-15T02:09:22.705Z,101845.28
2023-10-15T02:11:55.902Z,101859.19
2023-10-15T02:14:29.011Z,101869.78
2023-10-15T02:17:01.578Z,101870.69
2023-10-15T02:19:36.524Z,101872.47
2023-10-15T02:22:13.709Z,101873.72
2023-10-15T02:24:48.220Z,101877.91
2023-10-15T02:27:26.873Z,101878.75
2023-10-15T02:29:57.880Z,101880.59
2023-10-15T02:32:34.756Z,101873.53
2023-10-15T02:35:14.437Z,101870.09
2023-10-15T02:37:48.581Z,101863.94
2023-10-15T02:40:21.183Z,101870.13
2023-10-15T02:42:58.245Z,101864.00
2023-10-15T02:45:37.164Z,101857.84
2023-10-15T02:48:12.238Z,101857.94
2023-10-15T02:50:42.677Z,101858.84
2023-10-15T02:53:13.873Z,101862.38
2023-10-15T02:55:49.106Z,101852.00
2023-10-15T02:58:28.572Z,101868.66
2023-10-15T03:01:01.510Z,101861.63
2023-10-15T03:03:38.135Z,101860.78
2023-10-15T03:06:12.327Z,101866.06
2023-10-15T03:08:50.128Z,101866.06
2023-10-15T03:11:22.592Z,101859.03
2023-10-15T03:13:56.984Z,101865.22
2023-10-15T03:16:31.642Z,101847.09
2023-10-15T03:19:11.008Z,101860.81
2023-10-15T03:21:42.123Z,101856.47
2023-10-15T03:24:16.010Z,101860.03
2023-10-15T03:26:49.092Z,101853.88
2023-10-15T03:29:25.118Z,101846.00
2023-10-15T03:31:56.004Z,101825.97
2023-10-15T03:34:27.366Z,101844.19
2023-10-15T03:36:59.891Z,101843.41
2023-10-15T03:39:45.937Z,101851.41
2023-10-15T03:42:27.693Z,101854.09
2023-10-15T03:45:09.726Z,101850.59
2023-10-15T03:47:42.458Z,101835.94
2023-10-15T03:50:13.055Z,101842.94
2023-10-15T03:52:45.870Z,101849.78
2023-10-15T03:55:16.616Z,101835.00
2023-10-15T03:57:50.492Z,101850.66
2023-10-15T04:00:37.192Z,101860.38
2023-10-15T04:03:20.260Z,101860.38
2023-10-15T04:06:02.489Z,101859.50
2023-10-15T04:08:33.097Z,101849.84
2023-10-15T04:11:03.691Z,101851.63
2023-10-15T04:13:34.483Z,101850.75
2023-10-15T04:16:07.507Z,101853.47
2023-10-15T04:18:38.964Z,101853.69
2023-10-15T04:21:10.881Z,101852.63
2023-10-15T04:23:41.453Z,101853.59
2023-10-15T04:26:14.333Z,101855.44
2023-10-15T04:28:44.862Z,101853.66
2023-10-15T04:31:23.270Z,101853.69
2023-10-15T04:33:55.668Z,101851.97
2023-10-15T04:36:26.551Z,101858.19
2023-10-15T04:39:10.131Z,101852.09
2023-10-15T04:41:40.539Z,101858.31
2023-10-15T04:44:14.609Z,101866.25
2023-10-15T04:46:48.178Z,101860.94
2023-10-15T04:49:20.323Z,101853.91
2023-10-15T04:51:50.827Z,101852.22
2023-10-15T04:54:25.308Z,101847.84
2023-10-15T04:56:56.788Z,101839.31
2023-10-15T04:59:27.140Z,101848.75
2023-10-15T05:02:00.156Z,101854.03
2023-10-15T05:04:30.593Z,101849.69
2023-10-15T05:07:01.472Z,101853.31
2023-10-15T05:09:41.448Z,101848.88
2023-10-15T05:12:11.867Z,101841.84
2023-10-15T05:14:42.416Z,101833.34
2023-10-15T05:17:16.323Z,101848.94
2023-10-15T05:19:47.244Z,101835.00
2023-10-15T05:22:17.576Z,101832.38
2023-10-15T05:24:47.865Z,101841.09
2023-10-15T05:27:18.265Z,101838.44
2023-10-15T05:29:48.542Z,101841.81
2023-10-15T05:32:21.589Z,101832.75
2023-10-15T05:34:53.307Z,101836.22
2023-10-15T05:37:23.650Z,101834.31
2023-10-15T05:39:53.975Z,101841.16
2023-10-15T05:42:24.470Z,101844.56
2023-10-15T05:44:54.814Z,101846.16
2023-10-15T05:47:28.018Z,101845.19
2023-10-15T05:49:59.750Z,101839.91
2023-10-15T05:52:30.315Z,101839.91
2023-10-15T05:55:02.693Z,101839.00
2023-10-15T05:57:33.291Z,101839.78
2023-10-15T06:00:19.624Z,101836.47
2023-10-15T06:02:53.437Z,101818.91
2023-10-15T06:05:24.021Z,101838.81
2023-10-15T06:07:56.431Z,101846.69
2023-10-15T06:10:31.020Z,101846.69
2023-10-15T06:13:01.312Z,101844.75
2023-10-15T06:15:31.770Z,101835.00
2023-10-15T06:18:04.862Z,101834.09
2023-10-15T06:20:35.374Z,101842.91
2023-10-15T06:23:09.765Z,101836.66
2023-10-15T06:25:40.470Z,101834.00
2023-10-15T06:28:15.578Z,101841.03
2023-10-15T06:30:46.422Z,101841.03
2023-10-15T06:33:19.713Z,101843.69
2023-10-15T06:35:50.017Z,101842.78
2023-10-15T06:38:21.044Z,101840.06
2023-10-15T06:40:53.594Z,101835.56
2023-10-15T06:43:25.235Z,101830.47
2023-10-15T06:45:56.421Z,101832.09
2023-10-15T06:48:29.296Z,101840.59
2023-10-15T06:50:59.841Z,101849.31
2023-10-15T06:53:30.288Z,101844.94
2023-10-15T06:56:00.740Z,101854.63
2023-10-15T06:58:31.690Z,101866.06
2023-10-15T07:01:03.813Z,101857.16
2023-10-15T07:03:37.405Z,101853.53
2023-10-15T07:06:08.137Z,101858.72
2023-10-15T07:08:38.803Z,101857.75
2023-10-15T07:11:10.106Z,101858.56
2023-10-15T07:13:40.839Z,101861.28
2023-10-15T07:16:12.596Z,101852.47
2023-10-15T07:18:45.897Z,101852.44
2023-10-15T07:21:16.858Z,101853.56
2023-10-15T07:23:47.797Z,101851.88
2023-10-15T07:26:18.745Z,101851.00
2023-10-15T07:28:50.821Z,101864.84
2023-10-15T07:31:21.673Z,101858.19
2023-10-15T07:33:54.852Z,101871.41
2023-10-15T07:36:25.993Z,101871.31
2023-10-15T07:38:56.200Z,101884.41
2023-10-15T07:41:30.082Z,101881.69
2023-10-15T07:44:02.224Z,101877.28
2023-10-15T07:46:35.064Z,101877.47
2023-10-15T07:49:08.740Z,101875.69
2023-10-15T07:51:39.523Z,101872.09
2023-10-15T07:54:10.486Z,101882.63
2023-10-15T07:56:41.274Z,101876.72
2023-10-15T07:59:11.945Z,101893.03
2023-10-15T08:01:42.588Z,101895.63
2023-10-15T08:04:16.300Z,101881.78
2023-10-15T08:06:48.315Z,101899.94
2023-10-15T08:09:18.849Z,101898.13
2023-10-15T08:11:49.658Z,101872.78
2023-10-15T08:14:21.445Z,101885.66
2023-10-15T08:16:51.826Z,101882.13
2023-10-15T08:19:25.298Z,101881.25
2023-10-15T08:21:55.803Z,101885.56
2023-10-15T08:24:27.005Z,101883.69
2023-10-15T08:26:57.752Z,101879.28
2023-10-15T08:29:28.557Z,101872.31
2023-10-15T08:31:59.050Z,101883.47
2023-10-15T08:34:32.514Z,101891.34
2023-10-15T08:37:04.044Z,101891.16
2023-10-15T08:39:37.728Z,101890.25
2023-10-15T08:42:12.829Z,101898.97
2023-10-15T08:44:43.829Z,101888.66
2023-10-15T08:47:15.360Z,101906.00
2023-10-15T08:49:54.190Z,101909.22
2023-10-15T08:52:25.800Z,101917.25
2023-10-15T08:54:57.514Z,101917.25
2023-10-15T08:57:29.514Z,101915.50
2023-10-15T09:00:01.979Z,101916.25
2023-10-15T09:02:34.698Z,101932.88
2023-10-15T09:05:09.880Z,101929.19
2023-10-15T09:07:40.837Z,101927.34
2023-10-15T09:10:15.331Z,101922.84
2023-10-15T09:12:45.783Z,101932.44
2023-10-15T09:15:20.733Z,101919.97
2023-10-15T09:17:59.853Z,101915.34
2023-10-15T09:20:34.447Z,101916.81
2023-10-15T09:23:05.668Z,101909.63
2023-10-15T09:25:36.103Z,101909.63
2023-10-15T09:28:06.844Z,101910.91
2023-10-15T09:30:37.218Z,101912.81
2023-10-15T09:33:14.147Z,101920.66
2023-10-15T09:35:47.730Z,101921.44
2023-10-15T09:38:18.797Z,101924.72
2023-10-15T09:40:49.056Z,101929.16
2023-10-15T09:43:20.191Z,101926.38
2023-10-15T09:45:50.467Z,101926.25
2023-10-15T09:48:22.352Z,101915.47
2023-10-15T09:50:58.710Z,101924.13
2023-10-15T09:53:30.156Z,101927.31
2023-10-15T09:56:09.204Z,101933.97
2023-10-15T09:58:40.365Z,101925.06
2023-10-15T10:01:18.707Z,101927.25
2023-10-15T10:04:25.117Z,101921.88
2023-10-15T10:07:31.601Z,101921.09
2023-10-15T10:10:33.247Z,101921.75
2023-10-15T10:13:54.152Z,101919.22
2023-10-15T10:16:29.201Z,101915.78
2023-10-15T10:18:59.958Z,101919.38
2023-10-15T10:21:36.099Z,101925.59
2023-10-15T10:24:13.832Z,101920.41
2023-10-15T10:26:44.402Z,101909.72
2023-10-15T10:29:17.691Z,101901.25
2023-10-15T10:31:50.784Z,101909.22
2023-10-15T10:34:33.214Z,101901.69
2023-10-15T10:37:05.150Z,101914.38
2023-10-15T10:39:50.752Z,101913.13
2023-10-15T10:42:27.962Z,101912.66
2023-10-15T10:44:59.730Z,101898.41
2023-10-15T10:47:35.410Z,101891.31
2023-10-15T10:50:07.797Z,101903.44
2023-10-15T10:52:39.390Z,101907.16
2023-10-15T10:55:37.194Z,101914.72
2023-10-15T10:58:11.754Z,101899.72
2023-10-15T11:00:42.445Z,101911.59
2023-10-15T11:03:13.696Z,101901.06
2023-10-15T11:05:46.434Z,101900.28
2023-10-15T11:08:23.411Z,101897.00
2023-10-15T11:11:00.973Z,101904.97
2023-10-15T11:13:33.423Z,101900.66
2023-10-15T11:16:03.923Z,101898.00
2023-10-15T11:18:36.565Z,101894.44
2023-10-15T11:21:08.901Z,101901.44
2023-10-15T11:23:40.154Z,101901.56
2023-10-15T11:26:13.466Z,101898.25
2023-10-15T11:28:43.992Z,101898.25
2023-10-15T11:31:14.876Z,101896.59
2023-10-15T11:33:46.377Z,101896.53
2023-10-15T11:36:18.849Z,101889.50
2023-10-15T11:38:49.285Z,101886.72
2023-10-15T11:41:24.312Z,101899.03
2023-10-15T11:43:56.799Z,101885.66
2023-10-15T11:46:27.675Z,101883.13
2023-10-15T11:48:59.674Z,101882.22
2023-10-15T11:51:30.502Z,101889.38
2023-10-15T11:54:03.859Z,101885.97
2023-10-15T11:56:37.003Z,101885.66
2023-10-15T11:59:07.712Z,101891.56
2023-10-15T12:01:39.538Z,101888.84
2023-10-15T12:04:12.528Z,101879.97
2023-10-15T12:06:45.293Z,101872.88
2023-10-15T12:09:18.324Z,101861.41
2023-10-15T12:11:51.467Z,101849.91
2023-10-15T12:14:22.261Z,101855.25
2023-10-15T12:16:52.651Z,101858.03
2023-10-15T12:19:23.638Z,101852.00
2023-10-15T12:21:53.813Z,101848.53
2023-10-15T12:24:24.709Z,101853.97
2023-10-15T12:26:58.439Z,101853.97
2023-10-15T12:29:33.013Z,101840.88
2023-10-15T12:32:04.437Z,101823.31
2023-10-15T12:34:35.424Z,101846.97
2023-10-15T12:37:09.258Z,101842.56
2023-10-15T12:39:42.519Z,101848.66
2023-10-15T12:42:18.453Z,101854.91
2023-10-15T12:44:49.268Z,101842.03
2023-10-15T12:47:19.905Z,101853.19
2023-10-15T12:49:50.537Z,101870.03
2023-10-15T12:52:20.978Z,101852.66
2023-10-15T12:54:51.334Z,101878.78
2023-10-15T12:57:24.543Z,101872.41
2023-10-15T12:59:55.096Z,101878.78
2023-10-15T13:02:25.531Z,101870.03
2023-10-15T13:04:56.125Z,101875.34
2023-10-15T13:07:26.668Z,101878.13
2023-10-15T13:09:56.994Z,101877.25
2023-10-15T13:12:30.385Z,101884.19
2023-10-15T13:15:00.838Z,101886.84
2023-10-15T13:17:31.357Z,101881.63
2023-10-15T13:20:06.442Z,101897.53
2023-10-15T13:22:37.085Z,101888.63
2023-10-15T13:25:09.256Z,101897.59
2023-10-15T13:27:43.533Z,101900.09
2023-10-15T13:30:18.019Z,101894.28
2023-10-15T13:32:50.270Z,101900.06
2023-10-15T13:35:22.152Z,101904.25
2023-10-15T13:37:53.019Z,101890.19
2023-10-15T13:40:25.315Z,101896.00
2023-10-15T13:43:00.188Z,101889.03
2023-10-15T13:45:30.957Z,101896.09
2023-10-15T13:48:01.644Z,101897.81
2023-10-15T13:50:32.158Z,101898.75
2023-10-15T13:53:02.510Z,101892.38
2023-10-15T13:55:34.544Z,101893.97
2023-10-15T13:58:08.419Z,101903.38
2023-10-15T14:00:39.062Z,101906.63
2023-10-15T14:03:09.677Z,101906.22
2023-10-15T14:05:42.611Z,101905.03
2023-10-15T14:08:13.500Z,101911.75
2023-10-15T14:10:44.298Z,101908.75
2023-10-15T14:13:20.755Z,101907.47
2023-10-15T14:15:52.317Z,101903.16
2023-10-15T14:18:22.737Z,101901.97
2023-10-15T14:20:53.251Z,101911.13
2023-10-15T14:23:24.811Z,101917.88
2023-10-15T14:25:56.090Z,101920.31
2023-10-15T14:28:29.185Z,101918.63
2023-10-15T14:31:00.035Z,101916.50
2023-10-15T14:33:30.688Z,101911.63
2023-10-15T14:36:04.256Z,101904.09
2023-10-15T14:38:34.644Z,101903.00
2023-10-15T14:41:06.516Z,101902.69
2023-10-15T14:43:39.697Z,101902.47
2023-10-15T14:46:10.445Z,101910.31
2023-10-15T14:48:41.505Z,101913.97
2023-10-15T14:51:12.321Z,101914.94
2023-10-15T14:53:43.131Z,101911.53
2023-10-15T14:56:14.060Z,101904.00
2023-10-15T14:58:47.438Z,101901.56
2023-10-15T15:01:18.351Z,101899.28
2023-10-15T15:03:49.538Z,101882.91
2023-10-15T15:06:20.491Z,101888.66
2023-10-15T15:08:51.280Z,101876.75
2023-10-15T15:11:22.481Z,101875.25
2023-10-15T15:13:56.252Z,101873.09
2023-10-15T15:16:27.771Z,101874.81
2023-10-15T15:19:01.149Z,101877.03
2023-10-15T15:21:32.498Z,101876.69
2023-10-15T15:24:04.009Z,101877.38
2023-10-15T15:26:35.375Z,101879.72
2023-10-15T15:29:09.217Z,101866.44
2023-10-15T15:31:45.009Z,101881.00
2023-10-15T15:34:16.347Z,101883.50
2023-10-15T15:36:48.116Z,101889.38
2023-10-15T15:39:20.140Z,101883.88
2023-10-15T15:41:51.219Z,101882.03
2023-10-15T15:44:25.159Z,101887.09
2023-10-15T15:46:56.627Z,101876.53
2023-10-15T15:49:29.264Z,101875.53
2023-10-15T15:52:00.161Z,101893.75
2023-10-15T15:54:32.198Z,101885.47
2023-10-15T15:57:03.883Z,101880.03
2023-10-15T15:59:37.780Z,101888.25
2023-10-15T16:02:08.960Z,101887.22
2023-10-15T16:04:40.123Z,101890.59
2023-10-15T16:07:11.699Z,101888.53
2023-10-15T16:09:43.156Z,101884.78
2023-10-15T16:12:15.402Z,101889.03
2023-10-15T16:14:48.980Z,101890.66
2023-10-15T16:17:20.624Z,101892.31
2023-10-15T16:19:53.657Z,101885.19
2023-10-15T16:22:25.795Z,101891.38
2023-10-15T16:25:06.297Z,101872.13
2023-10-15T16:27:37.761Z,101898.34
2023-10-15T16:30:13.926Z,101902.69
2023-10-15T16:32:44.978Z,101885.88
2023-10-15T16:35:18.064Z,101889.38
2023-10-15T16:37:50.176Z,101889.38
2023-10-15T16:40:21.031Z,101895.81
2023-10-15T16:42:51.498Z,101908.22
2023-10-15T16:45:24.870Z,101906.47
2023-10-15T16:47:55.754Z,101893.00
2023-10-15T16:50:26.636Z,101915.88
2023-10-15T16:52:58.991Z,101911.47
2023-10-15T16:55:29.685Z,101915.06
2023-10-15T16:58:00.323Z,101907.06
2023-10-15T17:00:35.743Z,101911.56
2023-10-15T17:03:08.465Z,101910.69
2023-10-15T17:05:42.259Z,101917.81
2023-10-15T17:08:13.068Z,101920.47
2023-10-15T17:10:43.674Z,101933.03
2023-10-15T17:13:14.322Z,101928.63
2023-10-15T17:15:48.053Z,101924.63
2023-10-15T17:18:18.913Z,101932.31
2023-10-15T17:20:49.808Z,101940.28
2023-10-15T17:23:20.789Z,101947.41
2023-10-15T17:25:51.165Z,101943.09
2023-10-15T17:28:23.436Z,101942.34
2023-10-15T17:30:56.814Z,101952.19
2023-10-15T17:33:29.100Z,101947.19
2023-10-15T17:36:00.028Z,101959.72
2023-10-15T17:38:31.163Z,101959.88
2023-10-15T17:41:03.795Z,101966.13
2023-10-15T17:43:35.931Z,101956.44
2023-10-15T17:46:09.335Z,101960.16
2023-10-15T17:48:40.639Z,101955.00
2023-10-15T17:51:11.846Z,101955.09
2023-10-15T17:53:42.697Z,101953.44
2023-10-15T17:56:14.300Z,101940.59
2023-10-15T17:58:45.102Z,101956.34
2023-10-15T18:01:19.409Z,101951.09
2023-10-15T18:03:50.256Z,101957.03
2023-10-15T18:06:21.019Z,101950.84
2023-10-15T18:08:52.502Z,101957.03
2023-10-15T18:11:23.886Z,101946.41
2023-10-15T18:13:55.002Z,101950.63
2023-10-15T18:16:28.304Z,101950.69
2023-10-15T18:19:01.708Z,101954.22
2023-10-15T18:21:32.678Z,101952.19
2023-10-15T18:24:03.461Z,101945.38
2023-10-15T18:26:34.217Z,101963.47
2023-10-15T18:29:04.833Z,101957.97
2023-10-15T18:31:38.048Z,101960.50
2023-10-15T18:34:09.063Z,101965.03
2023-10-15T18:36:39.371Z,101962.38
2023-10-15T18:39:12.352Z,101975.53
2023-10-15T18:41:43.190Z,101966.59
2023-10-15T18:44:13.882Z,101973.66
2023-10-15T18:46:49.222Z,101968.47
2023-10-15T18:49:20.387Z,101968.31
2023-10-15T18:51:50.943Z,101966.28
2023-10-15T18:54:21.809Z,101951.50
2023-10-15T18:56:52.238Z,101964.25
2023-10-15T18:59:23.399Z,101953.91
2023-10-15T19:01:57.073Z,101961.69
2023-10-15T19:04:28.110Z,101959.00
2023-10-15T19:06:59.016Z,101955.47
2023-10-15T19:09:31.826Z,101952.72
2023-10-15T19:12:02.825Z,101949.53
2023-10-15T19:14:33.481Z,101952.56
2023-10-15T19:17:07.388Z,101964.97
2023-10-15T19:19:39.963Z,101963.31
2023-10-15T19:22:11.983Z,101965.19
2023-10-15T19:24:46.269Z,101957.22
2023-10-15T19:27:19.504Z,101955.53
2023-10-15T19:29:50.595Z,101957.38
2023-10-15T19:32:26.591Z,101961.84
2023-10-15T19:34:58.865Z,101962.84
2023-10-15T19:37:31.467Z,101961.75
2023-10-15T19:40:02.537Z,101954.94
2023-10-15T19:42:36.429Z,101957.53
2023-10-15T19:45:08.187Z,101956.56
2023-10-15T19:47:42.530Z,101966.13
2023-10-15T19:50:18.130Z,101969.56
2023-10-15T19:52:50.553Z,101978.31
2023-10-15T19:55:22.357Z,101974.91
2023-10-15T19:57:55.718Z,101968.53
2023-10-15T20:00:29.200Z,101966.91
2023-10-15T20:03:03.893Z,101966.13
2023-10-15T20:05:35.344Z,101958.91
2023-10-15T20:08:08.601Z,101961.84
2023-10-15T20:10:42.012Z,101968.69
2023-10-15T20:13:15.934Z,101972.22
2023-10-15T20:15:46.926Z,101967.22
2023-10-15T20:18:21.285Z,101982.09
2023-10-15T20:20:53.161Z,101982.09
2023-10-15T20:23:25.808Z,101979.44
2023-10-15T20:25:57.645Z,101984.03
2023-10-15T20:28:29.225Z,101984.03
2023-10-15T20:31:01.493Z,101979.59
2023-10-15T20:33:35.896Z,101983.13
2023-10-15T20:36:07.746Z,101980.53
2023-10-15T20:38:39.925Z,101975.28
2023-10-15T20:41:11.459Z,101987.72
2023-10-15T20:43:46.450Z,101984.28
2023-10-15T20:46:18.738Z,101987.00
2023-10-15T20:48:51.697Z,101994.31
2023-10-15T20:51:26.652Z,101994.47
2023-10-15T20:54:00.056Z,101987.34
2023-10-15T20:56:31.625Z,101993.84
2023-10-15T20:59:04.384Z,101986.94
2023-10-15T21:01:36.374Z,101988.97
2023-10-15T21:04:10.331Z,101986.63
2023-10-15T21:06:43.178Z,101990.38
2023-10-15T21:09:19.120Z,101994.31
2023-10-15T21:11:52.288Z,101995.63
2023-10-15T21:14:24.717Z,101989.69
2023-10-15T21:16:56.667Z,101991.06
2023-10-15T21:19:31.075Z,102000.13
2023-10-15T21:22:05.347Z,101988.16
2023-10-15T21:24:37.088Z,101985.72
2023-10-15T21:27:09.488Z,101990.50
2023-10-15T21:29:40.212Z,101997.81
2023-10-15T21:32:10.879Z,101990.03
2023-10-15T21:34:44.630Z,102001.81
2023-10-15T21:37:15.348Z,101993.13
2023-10-15T21:39:46.445Z,101998.63
2023-10-15T21:42:19.027Z,101993.63
2023-10-15T21:44:49.816Z,101995.63
2023-10-15T21:47:20.990Z,101996.69
2023-10-15T21:49:58.313Z,101998.59
2023-10-15T21:52:29.292Z,102000.63
2023-10-15T21:55:00.207Z,102003.47
2023-10-15T21:57:30.861Z,102016.09
2023-10-15T22:00:01.752Z,102010.13
2023-10-15T22:02:34.964Z,102019.16
2023-10-15T22:05:12.765Z,102021.16
2023-10-15T22:07:44.778Z,102016.03
2023-10-15T22:10:16.389Z,102008.22
2023-10-15T22:12:47.387Z,102006.56
2023-10-15T22:15:20.478Z,102003.13
2023-10-15T22:20:28.822Z,101997.25
2023-10-15T22:23:01.853Z,101994.72
2023-10-15T22:25:33.004Z,102000.16
2023-10-15T22:28:05.516Z,101994.91
2023-10-15T22:30:43.382Z,101988.00
2023-10-15T22:33:14.854Z,101984.03
2023-10-15T22:35:49.116Z,101988.25
2023-10-15T22:38:21.799Z,101978.09
2023-10-15T22:40:53.966Z,101992.91
2023-10-15T22:43:26.029Z,101987.72
2023-10-15T22:45:57.035Z,101994.88
2023-10-15T22:48:28.107Z,102000.31
2023-10-15T22:51:01.544Z,101998.59
2023-10-15T22:53:32.441Z,101994.28
2023-10-15T22:56:04.455Z,101983.81
2023-10-15T22:58:36.254Z,101978.94
2023-10-15T23:01:07.343Z,101993.66
2023-10-15T23:03:37.596Z,101990.22
2023-10-15T23:06:13.395Z,101978.81
2023-10-15T23:08:43.885Z,101982.47
2023-10-15T23:11:14.271Z,101986.03
2023-10-15T23:13:44.904Z,101987.03
2023-10-15T23:16:16.640Z,101982.72
2023-10-15T23:18:47.498Z,101970.69
2023-10-15T23:21:37.346Z,101984.63
2023-10-15T23:24:15.287Z,101976.97
2023-10-15T23:26:47.368Z,101977.09
2023-10-15T23:29:17.961Z,101984.81
2023-10-15T23:31:49.765Z,101978.75
2023-10-15T23:34:20.088Z,101973.53
2023-10-15T23:36:53.596Z,101976.22
2023-10-15T23:39:24.213Z,101974.53
2023-10-15T23:41:54.943Z,101979.00
2023-10-15T23:44:26.204Z,101968.47
2023-10-15T23:47:13.638Z,101966.81
2023-10-15T23:49:47.648Z,101969.53
2023-10-15T23:52:29.590Z,101980.25
2023-10-15T23:55:01.531Z,101966.13
2023-10-15T23:57:33.046Z,101972.34
